• pl
  • eng

Awiacja
WIADOMOŚCI
ostatnia aktualizacja: 26.09.2019 09:57
Uprzejmie informujemy, że od dnia 2.09.2019 jest dostępna w formie testowej prognoza GAFOR. Prosimy o przesyłanie na adres gafor@imgw.pl uwag i sugestii, które przyczynią się do rozwoju produktu.
TAF FC 06:30 22.01.2020
  • WIND
  • SIGNIFICANT EURO
  • SIGNIFICANT
  • SIGMET
  • AIRMET
  • TAF FC
  • TAF FT
  • METAR GG30
  • METAR GG00


TAF EPLB 220530Z 2206/2215 27014KT 9999 BKN012
TEMPO 2206/2215 28018G30KT -RASN BKN006=

TAF EPSY 220530Z 2206/2215 27010KT 8000 -RA SCT008 BKN016
TEMPO 2206/2212 4000 RADZ BR OVC007
PROB40 TEMPO 2206/2215 29016G28KT=

TAF AMD EPZG 220615Z 2206/2215 25011KT 1400 BR OVC005
TEMPO 2206/2213 0600 DZ FG BKN003
BECMG 2213/2215 6000 BKN015=
Awiacja.imgw.pl jest pogodowym serwisem informacyjnym
Instytutu Meteorologii i Gospodarki Wodnej Państwowego Instytutu Badawczego.
Copyright IMGW PIB 2009-2019© Wszelkie prawa zastrzeżone.